Weather at Altisurface du Glacier de la Chiaupe

Public forecast

Using degrees Celsius for public forecast. Weather courtesy of forecast.io.

Closest aviation weather report (METAR) to Altisurface du Glacier de la Chiaupe

Closest report is Aosta Airport, 29.0 nm (53.7 km) ENE. Retrieved 2020/09/22 12:20 UTC (11 minutes ago):

LIMW 221220Z AUTO 09009KT 060V130 9999 FEW058 20/14 Q1014

Closest aviation forecast (TAF) to Altisurface du Glacier de la Chiaupe

Closest forecast is Annecy-Haute-Savoie-Mont Blanc Airport, 38.5 nm (71.3 km) NW. Retrieved 2020/09/22 09:00 UTC (4 hours ago):

TAF LFLP 220800Z 2209/2309 20004KT 9999 FEW009 BKN090 TEMPO 2212/2220 4000 SHRA SCT035TCU PROB30 TEMPO 2212/2220 23015G25KT 3000 TSRA BKN030CB TEMPO 2220/2305 2500 SHRA BKN014 FEW025CB PROB40 2220/2224 TSRA TEMPO 2305/2308 4000 BR BKN008